Time;durP1;ratioP1;P1;durP2;ratioP2;P2;SDS_P1;SDS_P2;PMS_P1;PMS_P2;Temp;Humidity;BMP_temperature;BMP_pressure;BME280_temperature;BME280_humidity;BME280_pressure;Samples;Min_cycle;Max_cycle;Signal;HPM_P1;HPM_P2
2023/01/18 00:01:48;;;;;;;7.57;4.28;;;;;;;3.15;85.77;98268.53;4981246;28;20125;-67
2023/01/18 00:04:13;;;;;;;22.65;4.55;;;;;;;3.26;85.18;98259.53;4982296;28;20045;-67
2023/01/18 00:06:40;;;;;;;6.38;2.90;;;;;;;3.24;85.63;98259.13;4989710;28;20084;-67
2023/01/18 00:09:05;;;;;;;5.28;3.55;;;;;;;3.16;85.58;98262.84;4990204;28;20158;-67
2023/01/18 00:11:31;;;;;;;4.68;2.65;;;;;;;3.27;85.23;98260.28;4987569;28;20113;-67
2023/01/18 00:13:56;;;;;;;8.82;4.22;;;;;;;3.22;85.28;98269.34;4988400;28;20846;-67
2023/01/18 00:16:22;;;;;;;9.25;3.55;;;;;;;3.30;85.30;98268.28;4979311;28;20105;-67
2023/01/18 00:18:56;;;;;;;5.10;3.30;;;;;;;3.35;84.87;98269.84;4990409;28;20030;-67
2023/01/18 00:21:23;;;;;;;6.18;2.97;;;;;;;3.16;85.79;98280.66;4989389;28;20113;-67
2023/01/18 00:23:48;;;;;;;4.28;2.50;;;;;;;3.14;84.84;98280.25;4990644;28;20395;-67
2023/01/18 00:26:14;;;;;;;6.53;3.25;;;;;;;3.35;84.86;98278.59;4990826;28;20026;-67
2023/01/18 00:28:40;;;;;;;12.55;4.90;;;;;;;3.20;84.43;98281.47;4990571;28;20062;-67
2023/01/18 00:31:15;;;;;;;8.80;4.32;;;;;;;3.19;84.46;98283.38;4972641;28;20037;-67
2023/01/18 00:33:46;;;;;;;5.63;3.33;;;;;;;3.18;84.87;98289.81;4968346;28;20038;-67
2023/01/18 00:36:13;;;;;;;5.07;3.17;;;;;;;3.08;84.79;98295.78;4990785;28;20026;-67
2023/01/18 00:38:39;;;;;;;9.40;3.67;;;;;;;3.22;84.45;98287.19;4981065;28;20038;-67
2023/01/18 00:41:04;;;;;;;9.90;4.50;;;;;;;3.24;84.93;98296.34;4987610;28;20034;-67
2023/01/18 00:43:38;;;;;;;9.48;3.50;;;;;;;3.20;84.63;98289.44;4990702;28;20030;-67
2023/01/18 00:46:13;;;;;;;10.60;4.93;;;;;;;3.09;84.31;98289.34;4990462;28;20169;-67
2023/01/18 00:48:40;;;;;;;7.07;3.25;;;;;;;3.11;85.12;98284.44;4971986;28;20106;-67
2023/01/18 00:51:11;;;;;;;3.40;2.55;;;;;;;3.01;84.94;98285.06;4990058;28;20527;-67
2023/01/18 00:53:39;;;;;;;4.95;3.17;;;;;;;3.12;85.12;98293.16;4990860;28;20041;-67
2023/01/18 00:56:09;;;;;;;6.45;3.13;;;;;;;3.13;85.75;98295.47;4986175;28;20088;-68
2023/01/18 00:58:36;;;;;;;11.10;3.42;;;;;;;3.31;84.20;98285.75;4989576;28;20486;-67
2023/01/18 01:01:02;;;;;;;8.65;4.18;;;;;;;3.06;84.60;98289.31;4985966;28;20030;-67
2023/01/18 01:03:27;;;;;;;7.47;3.22;;;;;;;3.05;84.67;98295.75;4968054;28;20096;-67
2023/01/18 01:08:37;;;;;;;8.10;3.13;;;;;;;3.07;84.09;98291.59;4989954;28;20458;-67
2023/01/18 01:11:08;;;;;;;7.00;3.78;;;;;;;3.03;84.27;98298.78;4990356;28;20034;-67
2023/01/18 01:27:18;;;;;;;3.88;2.85;;;;;;;2.80;85.23;98300.00;4986331;28;20048;-67
2023/01/18 01:29:44;;;;;;;5.55;3.03;;;;;;;2.86;85.44;98303.88;4987262;28;20045;-67
2023/01/18 01:32:10;;;;;;;5.93;2.75;;;;;;;2.74;86.16;98308.31;4955891;28;20034;-67
2023/01/18 01:34:35;;;;;;;6.25;3.70;;;;;;;2.77;85.66;98314.75;4973166;28;20044;-67
2023/01/18 01:37:01;;;;;;;9.75;4.30;;;;;;;2.73;86.07;98317.38;4979584;28;20118;-67
2023/01/18 01:39:27;;;;;;;11.75;4.03;;;;;;;2.92;85.13;98313.84;4988926;28;20380;-67
2023/01/18 01:41:52;;;;;;;8.48;3.72;;;;;;;2.96;85.13;98308.56;4988708;28;20041;-67
2023/01/18 01:44:26;;;;;;;8.50;4.90;;;;;;;2.77;85.65;98296.16;4991070;28;20037;-67
2023/01/18 01:47:01;;;;;;;7.80;3.60;;;;;;;2.67;86.71;98292.25;4989677;28;20041;-68
2023/01/18 01:49:32;;;;;;;8.30;3.75;;;;;;;2.62;87.00;98292.59;4957061;28;20054;-68
2023/01/18 01:52:02;;;;;;;12.82;4.57;;;;;;;2.88;86.15;98289.09;4993433;28;20490;-67
2023/01/18 01:54:33;;;;;;;13.45;6.30;;;;;;;2.83;85.91;98300.03;4975074;28;20030;-68
2023/01/18 01:57:09;;;;;;;7.93;4.22;;;;;;;2.72;86.43;98299.16;4993476;28;20026;-68
2023/01/18 01:59:45;;;;;;;8.07;4.50;;;;;;;2.63;86.89;98299.41;4992954;28;20824;-68
2023/01/18 02:02:11;;;;;;;9.07;3.80;;;;;;;2.76;87.13;98302.63;4979888;28;20487;-68
2023/01/18 02:04:45;;;;;;;10.73;4.20;;;;;;;2.75;86.05;98293.09;4986306;28;20040;-67
2023/01/18 02:07:11;;;;;;;12.38;5.03;;;;;;;2.79;86.65;98291.25;4956081;28;20239;-68
2023/01/18 02:09:37;;;;;;;13.55;4.03;;;;;;;2.79;86.62;98288.59;4988293;28;20050;-67
2023/01/18 02:12:03;;;;;;;11.68;4.40;;;;;;;2.81;86.70;98290.91;4970697;28;20418;-68
2023/01/18 02:14:30;;;;;;;7.30;4.53;;;;;;;2.76;85.98;98299.97;4988510;28;20034;-67
2023/01/18 02:16:56;;;;;;;11.50;4.30;;;;;;;2.68;86.83;98293.81;4992799;28;20457;-67
2023/01/18 02:19:37;;;;;;;6.93;3.92;;;;;;;2.66;87.35;98296.06;4975609;28;20398;-68
2023/01/18 02:22:13;;;;;;;13.02;5.15;;;;;;;2.73;86.77;98306.75;4992079;28;20030;-68
2023/01/18 02:24:54;;;;;;;7.28;4.32;;;;;;;2.72;87.09;98304.47;4993425;28;20512;-68
2023/01/18 02:27:24;;;;;;;13.88;5.15;;;;;;;2.77;86.48;98306.06;4992730;28;20043;-68
2023/01/18 02:30:05;;;;;;;11.82;4.10;;;;;;;2.67;86.52;98315.41;4972686;28;20046;-68
2023/01/18 02:32:51;;;;;;;11.23;3.67;;;;;;;2.81;86.35;98310.25;4992863;28;20517;-67
2023/01/18 02:35:43;;;;;;;5.80;4.30;;;;;;;2.71;86.19;98302.91;4976098;28;20380;-68
2023/01/18 02:38:13;;;;;;;6.97;3.78;;;;;;;2.73;86.08;98308.63;4987140;28;20030;-68
2023/01/18 02:40:41;;;;;;;7.93;3.93;;;;;;;2.62;86.63;98311.19;4991686;28;20069;-68
2023/01/18 02:48:43;;;;;;;9.35;3.42;;;;;;;2.75;86.24;98317.00;4992537;28;20125;-68
2023/01/18 02:51:09;;;;;;;13.80;4.63;;;;;;;2.79;86.71;98320.47;4990460;28;20038;-68
2023/01/18 02:53:39;;;;;;;9.80;3.42;;;;;;;2.83;86.79;98321.28;4992681;28;20058;-67
2023/01/18 02:56:10;;;;;;;8.27;4.90;;;;;;;2.78;86.44;98316.31;4990381;28;20483;-67
2023/01/18 02:58:49;;;;;;;4.88;3.28;;;;;;;2.74;85.69;98312.84;4992004;28;20590;-68
2023/01/18 03:01:38;;;;;;;9.50;4.07;;;;;;;2.87;86.85;98324.00;4968619;28;20531;-68
2023/01/18 03:04:22;;;;;;;5.65;3.00;;;;;;;2.88;86.39;98321.00;4991269;28;20038;-67
2023/01/18 03:06:56;;;;;;;4.68;3.42;;;;;;;2.78;85.90;98329.59;4990223;28;20026;-67
2023/01/18 03:09:26;;;;;;;14.43;5.50;;;;;;;2.80;86.05;98319.38;4973668;28;20038;-67
2023/01/18 03:11:51;;;;;;;7.05;3.78;;;;;;;2.82;85.85;98322.44;4987368;28;20132;-67
2023/01/18 03:14:35;;;;;;;15.13;4.32;;;;;;;2.77;86.00;98322.75;4990346;28;20621;-67
2023/01/18 03:17:19;;;;;;;11.38;4.13;;;;;;;2.76;85.86;98315.91;4991590;28;20120;-67
2023/01/18 03:20:08;;;;;;;10.35;4.57;;;;;;;2.66;86.35;98322.63;4965726;28;20035;-68
2023/01/18 03:26:13;;;;;;;6.00;3.38;;;;;;;2.75;85.53;98323.09;4932124;29;20043;-68
2023/01/18 03:34:30;;;;;;;4.63;3.55;;;;;;;2.72;85.31;98325.72;4991860;28;20565;-68
2023/01/18 03:37:00;;;;;;;9.05;3.85;;;;;;;2.71;85.56;98329.47;4970972;28;20034;-68
2023/01/18 03:39:46;;;;;;;5.55;2.63;;;;;;;2.62;85.84;98335.09;4989050;28;20038;-68
2023/01/18 03:42:22;;;;;;;6.82;3.85;;;;;;;2.58;85.33;98330.84;4990635;28;20041;-67
2023/01/18 03:45:03;;;;;;;8.48;4.72;;;;;;;2.55;86.15;98326.25;4989244;28;20117;-67
2023/01/18 03:47:29;;;;;;;;;;;;;;;2.55;86.55;98320.94;4984662;28;20188;-68
2023/01/18 03:49:55;;;;;;;6.03;2.58;;;;;;;2.54;86.54;98333.44;4960031;28;20008;-67
2023/01/18 03:52:24;;;;;;;7.97;3.72;;;;;;;2.50;86.73;98329.19;4985937;28;20034;-68
2023/01/18 03:55:04;;;;;;;16.23;4.55;;;;;;;2.58;86.27;98341.47;4990327;28;20030;-68
2023/01/18 03:57:45;;;;;;;8.80;3.67;;;;;;;2.55;86.40;98336.88;4990621;28;20161;-68
2023/01/18 04:02:43;;;;;;;4.90;3.95;;;;;;;2.50;85.70;98353.88;4960730;28;20077;-68
2023/01/18 04:05:09;;;;;;;7.15;3.05;;;;;;;2.51;85.23;98349.34;4954303;28;20443;-68
2023/01/18 04:07:35;;;;;;;5.60;3.33;;;;;;;2.50;85.48;98339.81;4971225;28;20399;-68
2023/01/18 04:10:00;;;;;;;11.48;4.32;;;;;;;2.56;85.49;98357.75;4966214;28;20039;-68
2023/01/18 04:12:26;;;;;;;10.70;3.78;;;;;;;2.47;85.79;98357.25;4982324;28;20085;-68
2023/01/18 04:14:52;;;;;;;18.45;4.82;;;;;;;2.46;85.69;98355.72;4990302;28;20030;-68
2023/01/18 04:17:17;;;;;;;6.85;4.22;;;;;;;2.46;86.23;98362.91;4973655;28;20498;-68
2023/01/18 04:19:43;;;;;;;7.88;3.80;;;;;;;2.45;85.40;98364.03;4989739;28;20117;-67
2023/01/18 04:22:09;;;;;;;7.97;4.38;;;;;;;2.44;85.86;98362.53;4990687;28;20173;-68
2023/01/18 04:24:34;;;;;;;9.25;4.13;;;;;;;2.50;86.00;98358.41;4974209;28;20045;-68
2023/01/18 04:27:01;;;;;;;7.65;3.15;;;;;;;2.52;86.30;98364.13;4966826;28;20092;-68
2023/01/18 04:29:27;;;;;;;8.90;4.45;;;;;;;2.55;86.39;98363.44;4988102;28;20026;-68
2023/01/18 04:31:52;;;;;;;8.77;3.72;;;;;;;2.55;86.06;98366.88;4971502;28;20050;-68
2023/01/18 04:34:20;;;;;;;13.80;3.55;;;;;;;2.63;85.37;98365.81;4981698;28;20049;-68
2023/01/18 04:36:46;;;;;;;14.20;3.50;;;;;;;2.54;85.52;98369.84;4966501;28;20190;-68
2023/01/18 04:39:13;;;;;;;9.80;3.92;;;;;;;2.33;85.84;98372.19;4988959;28;20718;-68
2023/01/18 04:41:38;;;;;;;11.40;5.22;;;;;;;2.39;85.35;98373.44;4967408;28;20146;-68
2023/01/18 04:44:04;;;;;;;8.45;3.92;;;;;;;2.42;85.94;98364.78;4978392;28;20072;-68
2023/01/18 04:46:29;;;;;;;9.63;4.13;;;;;;;2.37;85.84;98365.06;4957463;28;20030;-68
2023/01/18 04:48:55;;;;;;;6.82;4.10;;;;;;;2.39;86.56;98365.47;4968358;28;20031;-68
2023/01/18 04:51:22;;;;;;;6.65;4.65;;;;;;;2.32;86.03;98371.44;4987369;28;20125;-68
2023/01/18 04:53:49;;;;;;;9.82;4.05;;;;;;;2.39;86.26;98370.78;4975568;28;20038;-68
2023/01/18 04:56:15;;;;;;;7.50;4.18;;;;;;;2.36;85.72;98377.56;4971754;28;20018;-68
2023/01/18 04:58:41;;;;;;;13.40;4.50;;;;;;;2.41;85.74;98371.19;4971761;28;20136;-68
2023/01/18 05:01:08;;;;;;;6.57;4.28;;;;;;;2.48;85.79;98372.06;4968156;28;20215;-68
2023/01/18 05:03:37;;;;;;;7.70;4.30;;;;;;;2.47;86.38;98383.03;4970055;28;20034;-68
2023/01/18 05:06:07;;;;;;;10.63;3.92;;;;;;;2.47;85.93;98383.03;4999233;28;20026;-68
2023/01/18 05:08:33;;;;;;;10.45;5.28;;;;;;;2.40;85.76;98381.03;4991762;28;20042;-68
2023/01/18 05:11:03;;;;;;;9.82;4.05;;;;;;;2.52;85.56;98382.72;4985957;28;20030;-68
2023/01/18 05:13:29;;;;;;;8.32;3.58;;;;;;;2.52;86.00;98398.66;4988643;28;20442;-68
2023/01/18 05:15:55;;;;;;;8.10;3.83;;;;;;;2.44;86.29;98397.78;4969490;28;20042;-68
2023/01/18 05:18:21;;;;;;;8.13;4.32;;;;;;;2.61;85.65;98401.84;4987365;28;20041;-68
2023/01/18 05:20:47;;;;;;;5.97;2.95;;;;;;;2.64;84.83;98403.78;4991977;28;20038;-68
2023/01/18 05:23:13;;;;;;;4.45;3.35;;;;;;;2.66;84.53;98412.16;4992087;28;20034;-68
2023/01/18 05:25:39;;;;;;;8.57;2.92;;;;;;;2.70;84.41;98416.41;4976180;28;20415;-68
2023/01/18 05:28:08;;;;;;;5.30;3.22;;;;;;;2.61;84.36;98421.19;4992905;28;20031;-68
2023/01/18 05:30:38;;;;;;;9.00;4.50;;;;;;;2.65;84.49;98422.00;4974349;28;20096;-68
2023/01/18 05:33:03;;;;;;;10.35;3.75;;;;;;;2.47;83.90;98430.84;4993416;28;20080;-68
2023/01/18 05:35:29;;;;;;;9.40;4.43;;;;;;;2.53;84.30;98432.06;4992940;28;20450;-68
2023/01/18 05:38:15;;;;;;;6.55;3.60;;;;;;;2.61;83.71;98439.78;4974337;28;20473;-68
2023/01/18 05:40:46;;;;;;;6.78;4.97;;;;;;;2.45;84.34;98435.75;4927425;29;20425;-68
2023/01/18 05:43:11;;;;;;;12.30;4.95;;;;;;;2.35;85.13;98444.28;4922762;29;20090;-68
2023/01/18 05:45:37;;;;;;;4.05;2.92;;;;;;;2.27;85.38;98439.97;4932530;29;20051;-68
2023/01/18 05:48:02;;;;;;;8.40;4.88;;;;;;;2.29;85.30;98451.78;4931021;29;20775;-68
2023/01/18 05:50:28;;;;;;;9.55;5.00;;;;;;;2.35;85.41;98446.94;4928622;29;20043;-68
2023/01/18 05:52:56;;;;;;;10.25;5.60;;;;;;;2.32;85.32;98455.63;4933525;29;20083;-68
2023/01/18 05:55:21;;;;;;;21.17;7.20;;;;;;;2.33;85.59;98452.63;4931111;29;20032;-68
2023/01/18 05:57:47;;;;;;;15.82;6.03;;;;;;;2.31;85.48;98460.16;4934422;29;20165;-68
2023/01/18 06:00:13;;;;;;;9.82;4.80;;;;;;;2.24;85.87;98461.94;4927194;29;20458;-68
2023/01/18 06:02:38;;;;;;;7.40;4.57;;;;;;;2.25;85.95;98466.13;4930546;29;20040;-68
2023/01/18 06:05:04;;;;;;;9.77;5.03;;;;;;;2.28;85.70;98454.81;4934724;29;20036;-68
2023/01/18 06:07:30;;;;;;;14.38;5.05;;;;;;;2.31;85.95;98468.13;4919149;29;20759;-69
2023/01/18 06:09:55;;;;;;;14.90;5.75;;;;;;;2.13;85.71;98467.06;4915217;29;20040;-68
2023/01/18 06:12:20;;;;;;;8.15;4.13;;;;;;;2.19;86.12;98468.28;4934207;29;20047;-68
2023/01/18 06:14:46;;;;;;;12.00;4.80;;;;;;;2.27;86.13;98469.19;4919949;29;20035;-68
2023/01/18 06:17:11;;;;;;;19.05;7.00;;;;;;;2.26;85.60;98465.78;4958411;28;20038;-68
2023/01/18 06:19:37;;;;;;;13.73;5.80;;;;;;;2.41;84.88;98461.47;4957149;28;20038;-68
2023/01/18 06:22:02;;;;;;;17.90;6.45;;;;;;;2.40;84.52;98471.31;4979090;28;20105;-68
2023/01/18 06:24:27;;;;;;;12.73;5.65;;;;;;;2.35;85.27;98481.47;4993895;28;20445;-68
2023/01/18 06:26:53;;;;;;;12.52;6.78;;;;;;;2.34;85.47;98482.59;4970427;28;20023;-68
2023/01/18 06:29:18;;;;;;;12.05;6.32;;;;;;;2.36;85.08;98485.66;4981982;28;20029;-69
2023/01/18 06:31:44;;;;;;;9.93;4.30;;;;;;;2.41;84.82;98486.13;4970198;28;20034;-68
2023/01/18 06:34:09;;;;;;;11.05;5.57;;;;;;;2.35;84.21;98500.06;4993716;28;20411;-69
2023/01/18 06:36:35;;;;;;;6.65;3.80;;;;;;;2.25;84.42;98504.06;4993325;28;20684;-69
2023/01/18 06:39:01;;;;;;;11.25;5.35;;;;;;;2.28;84.99;98502.59;4992748;28;20652;-68
2023/01/18 06:41:28;;;;;;;8.00;4.32;;;;;;;2.27;84.70;98503.69;4992182;28;20062;-69
2023/01/18 06:43:53;;;;;;;7.43;4.65;;;;;;;2.28;85.39;98503.38;5000256;28;20098;-68
2023/01/18 06:46:19;;;;;;;16.73;4.82;;;;;;;2.29;85.14;98504.09;4961460;28;20031;-67
2023/01/18 06:48:44;;;;;;;20.55;5.88;;;;;;;2.29;85.11;98509.41;4962804;28;20785;-68
2023/01/18 06:51:11;;;;;;;8.02;3.38;;;;;;;2.20;85.50;98522.16;4995165;28;20061;-68
2023/01/18 06:53:37;;;;;;;11.20;6.15;;;;;;;2.26;85.02;98518.88;4996411;28;20049;-68
2023/01/18 06:56:03;;;;;;;12.73;5.28;;;;;;;2.23;84.86;98519.56;4972686;28;20037;-68
2023/01/18 06:58:31;;;;;;;14.55;6.45;;;;;;;2.25;84.31;98516.56;4975292;28;20062;-67
2023/01/18 07:00:58;;;;;;;9.10;5.32;;;;;;;2.27;84.64;98523.06;4994381;28;20069;-67
2023/01/18 07:03:25;;;;;;;10.60;4.55;;;;;;;2.27;84.74;98522.28;4975162;28;20034;-68
2023/01/18 07:05:59;;;;;;;9.52;4.00;;;;;;;2.24;84.94;98523.78;4954683;28;20380;-68
2023/01/18 07:08:25;;;;;;;11.05;4.28;;;;;;;2.19;85.18;98533.91;4984871;28;20201;-68
2023/01/18 07:10:51;;;;;;;15.90;5.30;;;;;;;2.18;85.55;98538.44;4956405;28;20030;-68
2023/01/18 07:13:17;;;;;;;8.50;4.78;;;;;;;2.16;85.32;98534.59;4992142;28;20041;-68
2023/01/18 07:15:42;;;;;;;9.02;3.97;;;;;;;2.19;84.62;98545.28;4992553;28;20034;-67
2023/01/18 07:18:08;;;;;;;10.48;3.50;;;;;;;2.12;84.86;98545.16;4999099;28;20034;-68
2023/01/18 07:20:33;;;;;;;6.00;4.35;;;;;;;2.09;85.21;98540.53;4973964;28;20072;-67
2023/01/18 07:22:59;;;;;;;15.20;3.78;;;;;;;2.13;84.77;98548.59;4988052;28;20155;-68
2023/01/18 07:25:26;;;;;;;10.85;3.13;;;;;;;2.09;84.47;98550.41;4991411;28;20128;-68
2023/01/18 07:27:52;;;;;;;14.40;3.83;;;;;;;2.05;84.91;98554.88;4992436;28;20076;-68
2023/01/18 07:30:17;;;;;;;10.23;4.93;;;;;;;2.03;85.51;98555.22;4989911;28;20085;-68
2023/01/18 07:32:50;;;;;;;15.35;5.18;;;;;;;2.05;85.25;98552.22;4986967;28;20026;-68
2023/01/18 07:35:23;;;;;;;11.52;5.50;;;;;;;2.17;84.95;98557.38;4991903;28;20046;-68
2023/01/18 07:37:51;;;;;;;10.57;5.68;;;;;;;2.16;84.81;98563.78;4971755;28;20027;-68
2023/01/18 07:40:20;;;;;;;14.82;5.13;;;;;;;2.16;84.80;98561.91;4989065;28;20124;-68
2023/01/18 07:42:46;;;;;;;9.23;5.28;;;;;;;2.14;85.00;98568.69;4990923;28;20042;-68
2023/01/18 07:45:12;;;;;;;4.85;3.15;;;;;;;2.12;84.88;98570.91;4970421;28;20449;-68
2023/01/18 07:47:42;;;;;;;7.03;3.47;;;;;;;2.15;84.59;98572.88;4972260;28;20038;-68
2023/01/18 07:50:08;;;;;;;9.45;4.43;;;;;;;2.19;84.77;98581.69;4973394;28;20061;-68
2023/01/18 07:52:33;;;;;;;8.48;4.65;;;;;;;2.15;84.69;98584.25;4986723;28;20030;-68
2023/01/18 07:54:59;;;;;;;5.38;3.72;;;;;;;2.13;84.40;98583.09;4989123;28;20402;-68
2023/01/18 07:57:24;;;;;;;4.97;3.58;;;;;;;1.89;85.50;98596.63;4985009;28;20037;-67
2023/01/18 07:59:50;;;;;;;19.85;4.43;;;;;;;2.00;85.59;98608.19;4979348;28;20046;-68
2023/01/18 08:02:16;;;;;;;8.65;4.35;;;;;;;1.92;85.45;98603.91;4971389;28;20061;-68
2023/01/18 08:04:42;;;;;;;5.30;2.38;;;;;;;1.86;85.79;98607.94;4990685;28;20026;-68
2023/01/18 08:07:08;;;;;;;7.47;4.03;;;;;;;1.98;85.22;98610.44;4968001;28;20042;-68
2023/01/18 08:09:33;;;;;;;8.80;4.85;;;;;;;2.00;86.17;98619.59;4988349;28;20038;-68
2023/01/18 08:12:00;;;;;;;4.80;3.75;;;;;;;2.01;86.36;98615.84;4982068;28;20046;-68
2023/01/18 08:14:26;;;;;;;7.47;4.50;;;;;;;2.06;86.51;98618.22;4980474;28;20113;-68
2023/01/18 08:16:51;;;;;;;6.28;3.60;;;;;;;2.10;86.05;98624.34;4969570;28;20664;-68
2023/01/18 08:19:16;;;;;;;6.80;3.55;;;;;;;2.20;85.94;98634.44;4983542;28;20030;-67
2023/01/18 08:21:46;;;;;;;5.80;3.10;;;;;;;2.15;85.30;98632.03;4983476;28;20058;-68
2023/01/18 08:24:12;;;;;;;14.73;4.45;;;;;;;2.22;85.23;98634.06;4969311;28;20152;-68
2023/01/18 08:26:38;;;;;;;5.40;3.53;;;;;;;2.08;85.99;98639.09;4968470;28;20034;-68
2023/01/18 08:29:03;;;;;;;10.40;5.15;;;;;;;2.16;85.77;98643.41;4967684;28;21063;-67
2023/01/18 08:31:29;;;;;;;7.28;3.97;;;;;;;2.01;86.06;98644.25;4982025;28;20085;-67
2023/01/18 08:34:15;;;;;;;4.03;3.03;;;;;;;2.12;86.47;98656.63;4987560;28;20038;-69
2023/01/18 08:36:40;;;;;;;6.80;3.60;;;;;;;2.11;86.50;98649.03;4924489;29;20182;-67
2023/01/18 08:39:06;;;;;;;9.85;5.05;;;;;;;2.28;86.22;98654.69;4922877;29;20305;-68
2023/01/18 08:41:31;;;;;;;23.95;4.88;;;;;;;2.48;84.75;98661.53;4926968;29;20106;-67
2023/01/18 08:43:58;;;;;;;6.30;3.25;;;;;;;2.25;85.49;98659.91;4926231;29;20031;-68
2023/01/18 08:46:27;;;;;;;7.97;4.20;;;;;;;2.19;85.83;98659.41;4919446;29;20036;-68
2023/01/18 08:48:55;;;;;;;10.93;4.10;;;;;;;1.80;86.64;98671.84;4929851;29;20048;-67
2023/01/18 08:51:21;;;;;;;9.85;4.43;;;;;;;1.92;87.13;98672.88;4910816;29;20153;-67
2023/01/18 08:53:50;;;;;;;5.38;2.53;;;;;;;1.95;86.75;98680.91;4920451;29;20052;-67
2023/01/18 08:56:17;;;;;;;7.15;3.60;;;;;;;2.02;87.76;98682.94;4927237;29;20441;-68
2023/01/18 08:58:42;;;;;;;5.82;3.50;;;;;;;2.29;86.45;98681.97;4932690;29;20228;-68
2023/01/18 09:01:09;;;;;;;6.78;2.50;;;;;;;2.41;86.43;98679.19;4930218;29;20043;-68
2023/01/18 09:03:36;;;;;;;4.60;3.20;;;;;;;2.34;85.57;98671.84;4924055;29;20059;-68
2023/01/18 09:06:05;;;;;;;4.35;3.40;;;;;;;2.48;85.91;98684.66;4897745;29;20150;-68
2023/01/18 09:08:30;;;;;;;6.70;3.72;;;;;;;2.75;85.03;98686.31;4928438;29;20807;-68
2023/01/18 09:11:04;;;;;;;14.80;5.13;;;;;;;2.91;84.89;98689.66;4928752;29;20051;-68
2023/01/18 09:13:30;;;;;;;8.23;4.30;;;;;;;2.47;84.97;98694.53;4956275;28;20089;-68
2023/01/18 09:16:07;;;;;;;9.35;2.97;;;;;;;2.70;84.82;98694.56;4975149;28;20069;-69
2023/01/18 09:18:33;;;;;;;9.82;4.30;;;;;;;2.60;83.88;98701.22;4974647;28;20045;-68
2023/01/18 09:21:12;;;;;;;8.32;4.05;;;;;;;2.62;84.52;98709.63;4974676;28;20145;-68
2023/01/18 09:23:39;;;;;;;7.00;4.57;;;;;;;2.38;85.23;98711.78;4970688;28;20068;-68
2023/01/18 09:26:15;;;;;;;7.97;3.55;;;;;;;2.66;84.89;98723.75;4991793;28;20096;-68
2023/01/18 09:28:47;;;;;;;12.32;4.13;;;;;;;3.05;84.10;98710.41;4975914;28;20104;-68
2023/01/18 09:31:13;;;;;;;8.85;3.85;;;;;;;3.14;83.59;98714.38;4989062;28;20399;-68
2023/01/18 09:33:41;;;;;;;9.95;3.85;;;;;;;2.99;83.86;98719.78;4970825;28;20026;-68
2023/01/18 09:36:09;;;;;;;6.43;3.85;;;;;;;3.06;84.03;98723.34;4991496;28;20363;-68
2023/01/18 09:38:36;;;;;;;8.13;4.43;;;;;;;2.97;83.12;98728.13;4994059;28;20113;-68
2023/01/18 09:41:05;;;;;;;14.82;5.13;;;;;;;3.28;81.90;98727.94;4974008;28;20030;-68
2023/01/18 09:43:38;;;;;;;9.25;3.60;;;;;;;3.25;82.57;98736.59;4991540;28;20514;-68
2023/01/18 09:46:17;;;;;;;14.13;5.28;;;;;;;3.25;83.00;98733.19;4991622;28;20541;-68
2023/01/18 09:48:44;;;;;;;6.88;4.80;;;;;;;3.49;82.60;98746.91;4992599;28;20682;-68
2023/01/18 09:51:19;;;;;;;13.38;4.10;;;;;;;3.22;81.89;98742.63;4971555;28;20125;-68
2023/01/18 09:53:57;;;;;;;15.60;6.07;;;;;;;3.19;81.55;98738.03;4985575;28;20034;-68
2023/01/18 09:56:26;;;;;;;9.85;4.18;;;;;;;3.14;81.23;98743.63;4990568;28;20178;-68
2023/01/18 09:59:14;;;;;;;8.45;4.50;;;;;;;3.23;82.19;98736.19;4973331;28;20514;-68
2023/01/18 10:01:40;;;;;;;8.13;3.90;;;;;;;3.35;81.09;98744.00;4990636;28;20068;-68
2023/01/18 10:04:38;;;;;;;13.25;4.95;;;;;;;3.25;80.81;98741.16;4992320;28;20061;-68
2023/01/18 10:07:10;;;;;;;6.97;3.00;;;;;;;3.23;81.18;98733.50;4992609;28;20037;-68
2023/01/18 10:09:50;;;;;;;8.80;4.25;;;;;;;3.11;81.38;98731.03;5015944;22;20042;-69
2023/01/18 10:12:33;;;;;;;9.23;4.53;;;;;;;3.21;81.69;98741.09;4994793;28;20030;-70
2023/01/18 10:15:16;;;;;;;8.30;4.53;;;;;;;3.44;80.91;98738.47;4992602;28;20053;-70
2023/01/18 10:20:27;;;;;;;7.88;3.92;;;;;;;3.31;80.49;98748.47;5078258;23;20049;-69
2023/01/18 10:23:19;;;;;;;7.85;4.18;;;;;;;3.43;80.44;98748.31;5014568;22;20038;-69
2023/01/18 10:25:55;;;;;;;15.40;5.07;;;;;;;3.65;81.12;98758.22;5021284;28;20096;-70
2023/01/18 10:28:47;;;;;;;7.00;3.97;;;;;;;3.81;80.54;98755.41;5016653;28;20052;-69
2023/01/18 10:31:33;;;;;;;7.72;2.95;;;;;;;3.80;79.37;98755.75;5010490;28;20037;-70
2023/01/18 10:34:00;;;;;;;7.57;3.38;;;;;;;3.53;79.85;98758.38;4997389;23;20064;-69
2023/01/18 10:36:40;;;;;;;10.63;3.72;;;;;;;3.61;80.18;98765.34;5024233;28;20041;-69
2023/01/18 10:39:26;;;;;;;9.70;4.55;;;;;;;3.80;80.48;98759.19;4990228;28;20040;-69
2023/01/18 10:41:56;;;;;;;8.35;4.22;;;;;;;3.88;79.51;98760.06;5017640;28;20401;-69
2023/01/18 10:44:22;;;;;;;4.85;3.70;;;;;;;3.92;79.21;98761.66;5014180;28;20030;-69
2023/01/18 10:46:48;;;;;;;13.23;4.40;;;;;;;4.06;79.18;98769.09;4992105;28;20057;-69
2023/01/18 10:49:47;;;;;;;13.73;5.70;;;;;;;4.31;78.21;98770.22;5004974;28;20045;-69
2023/01/18 10:52:28;;;;;;;10.05;3.83;;;;;;;4.15;78.57;98773.06;4955388;28;20501;-68
2023/01/18 10:55:00;;;;;;;11.40;5.32;;;;;;;4.24;78.46;98770.16;4992029;28;20513;-69
2023/01/18 10:57:33;;;;;;;9.52;5.32;;;;;;;3.94;78.86;98769.28;4997482;28;20073;-69
2023/01/18 10:59:59;;;;;;;7.28;3.33;;;;;;;4.25;78.51;98771.66;4971141;28;20052;-68
2023/01/18 11:02:36;;;;;;;9.43;4.15;;;;;;;4.07;77.92;98765.31;4993022;28;20037;-68
2023/01/18 11:05:24;;;;;;;8.05;3.45;;;;;;;4.18;77.88;98771.56;5010860;28;20030;-68
2023/01/18 11:08:11;;;;;;;9.65;4.00;;;;;;;4.08;77.51;98774.84;4983918;28;20125;-68
2023/01/18 11:10:37;;;;;;;6.68;4.55;;;;;;;3.99;79.18;98771.66;4984852;28;20549;-68
2023/01/18 11:13:21;;;;;;;14.95;6.47;;;;;;;4.28;78.72;98770.94;4975620;28;20022;-68
2023/01/18 11:15:47;;;;;;;12.13;4.40;;;;;;;4.20;77.62;98772.72;5005476;28;20099;-68
2023/01/18 11:18:12;;;;;;;9.15;4.60;;;;;;;4.27;77.38;98772.06;4989304;28;20034;-68
2023/01/18 11:20:46;;;;;;;11.40;4.55;;;;;;;4.31;77.53;98770.22;5003379;28;20042;-68
2023/01/18 11:23:36;;;;;;;8.07;4.03;;;;;;;4.34;78.09;98770.28;4989642;28;20101;-68
2023/01/18 11:26:22;;;;;;;7.70;4.38;;;;;;;4.30;77.57;98774.00;5005951;28;20034;-68
2023/01/18 11:29:05;;;;;;;8.30;3.72;;;;;;;4.36;78.18;98778.69;5009972;28;20129;-68
2023/01/18 11:31:46;;;;;;;7.60;3.92;;;;;;;4.41;77.82;98769.63;4992343;28;20092;-68
2023/01/18 11:34:36;;;;;;;11.82;4.50;;;;;;;4.24;78.76;98767.47;5008465;28;20045;-68
2023/01/18 11:37:23;;;;;;;8.13;4.90;;;;;;;4.32;77.17;98771.75;4971444;28;20460;-68
2023/01/18 11:39:48;;;;;;;9.13;4.70;;;;;;;4.20;78.28;98761.34;5006514;28;20387;-68
2023/01/18 11:42:25;;;;;;;9.02;4.78;;;;;;;4.38;79.00;98762.34;5000949;28;20042;-68
2023/01/18 11:45:21;;;;;;;5.78;3.28;;;;;;;4.53;77.57;98758.72;4999026;28;20441;-68
2023/01/18 11:48:19;;;;;;;9.13;4.22;;;;;;;4.53;77.97;98759.50;5009478;28;20029;-68
2023/01/18 11:50:47;;;;;;;9.52;4.78;;;;;;;4.59;77.39;98765.28;4964796;28;20049;-68
2023/01/18 11:53:21;;;;;;;6.20;3.85;;;;;;;4.71;77.27;98750.94;5006901;28;20058;-68
2023/01/18 11:56:05;;;;;;;8.63;3.50;;;;;;;4.79;76.63;98757.91;5004659;28;20074;-68
2023/01/18 11:58:33;;;;;;;7.60;3.75;;;;;;;4.71;75.76;98756.28;4998191;28;20042;-69
2023/01/18 12:01:21;;;;;;;5.88;3.33;;;;;;;4.64;76.78;98756.97;5005972;28;20033;-69
2023/01/18 12:04:05;;;;;;;12.80;3.60;;;;;;;4.65;77.76;98747.84;5003428;28;20030;-68
2023/01/18 12:06:56;;;;;;;7.32;3.53;;;;;;;4.76;77.33;98756.75;4981854;28;20044;-68
2023/01/18 12:09:40;;;;;;;10.73;3.85;;;;;;;4.80;77.31;98754.88;5003507;28;20056;-68
2023/01/18 12:12:20;;;;;;;9.10;4.22;;;;;;;4.82;77.39;98765.94;4967365;28;20042;-69
2023/01/18 12:15:07;;;;;;;10.15;3.92;;;;;;;4.70;76.63;98765.41;4985743;28;20072;-68
2023/01/18 12:17:44;;;;;;;9.82;3.92;;;;;;;4.70;76.78;98768.88;5001435;28;20821;-69
2023/01/18 12:20:18;;;;;;;9.77;3.67;;;;;;;4.74;77.44;98776.91;4984864;28;20044;-69
2023/01/18 12:22:57;;;;;;;9.23;3.90;;;;;;;4.70;78.47;98776.09;4975555;28;20399;-69
2023/01/18 12:25:47;;;;;;;5.40;2.88;;;;;;;4.86;77.75;98776.69;4998916;28;20396;-68
2023/01/18 12:28:57;;;;;;;6.72;2.72;;;;;;;4.82;77.60;98773.19;4980830;28;20037;-68
2023/01/18 12:31:34;;;;;;;7.03;4.28;;;;;;;4.79;77.18;98777.34;4932322;28;20110;-68
2023/01/18 12:34:14;;;;;;;8.88;3.95;;;;;;;4.83;77.72;98770.16;4990145;28;20061;-68